sensor_id;sensor_type;location;lat;lon;timestamp;temperature;humidity
16532;DHT22;66872;63.142;14.482;2023-03-03T00:01:18;13.20;24.40
16532;DHT22;66872;63.142;14.482;2023-03-03T00:03:44;13.20;24.40
16532;DHT22;66872;63.142;14.482;2023-03-03T00:06:12;13.20;24.40
16532;DHT22;66872;63.142;14.482;2023-03-03T00:08:38;13.20;24.40
16532;DHT22;66872;63.142;14.482;2023-03-03T00:11:04;13.20;24.40
16532;DHT22;66872;63.142;14.482;2023-03-03T00:13:47;13.20;24.40
16532;DHT22;66872;63.142;14.482;2023-03-03T00:16:24;13.20;24.40
16532;DHT22;66872;63.142;14.482;2023-03-03T00:18:51;13.20;24.40
16532;DHT22;66872;63.142;14.482;2023-03-03T00:21:32;13.20;24.50
16532;DHT22;66872;63.142;14.482;2023-03-03T00:24:21;13.20;24.50
16532;DHT22;66872;63.142;14.482;2023-03-03T00:26:52;13.20;24.50
16532;DHT22;66872;63.142;14.482;2023-03-03T00:29:34;13.20;24.50
16532;DHT22;66872;63.142;14.482;2023-03-03T00:34:44;13.10;24.40
16532;DHT22;66872;63.142;14.482;2023-03-03T00:37:33;13.20;25.00
16532;DHT22;66872;63.142;14.482;2023-03-03T00:42:44;13.20;24.50
16532;DHT22;66872;63.142;14.482;2023-03-03T00:48:24;13.10;24.40
16532;DHT22;66872;63.142;14.482;2023-03-03T00:50:52;13.10;24.90
16532;DHT22;66872;63.142;14.482;2023-03-03T00:53:20;13.10;24.40
16532;DHT22;66872;63.142;14.482;2023-03-03T00:55:49;13.10;24.50
16532;DHT22;66872;63.142;14.482;2023-03-03T00:58:15;13.10;24.50
16532;DHT22;66872;63.142;14.482;2023-03-03T01:00:41;13.10;24.50
16532;DHT22;66872;63.142;14.482;2023-03-03T01:03:12;13.10;24.50
16532;DHT22;66872;63.142;14.482;2023-03-03T01:05:39;13.10;24.50
16532;DHT22;66872;63.142;14.482;2023-03-03T01:08:05;13.10;24.50
16532;DHT22;66872;63.142;14.482;2023-03-03T01:10:35;13.10;24.50
16532;DHT22;66872;63.142;14.482;2023-03-03T01:13:03;13.10;24.50
16532;DHT22;66872;63.142;14.482;2023-03-03T01:15:28;13.10;24.60
16532;DHT22;66872;63.142;14.482;2023-03-03T01:17:54;13.00;24.50
16532;DHT22;66872;63.142;14.482;2023-03-03T01:20:21;13.00;24.50
16532;DHT22;66872;63.142;14.482;2023-03-03T01:22:47;13.00;24.60
16532;DHT22;66872;63.142;14.482;2023-03-03T01:25:13;13.00;24.60
16532;DHT22;66872;63.142;14.482;2023-03-03T01:27:38;13.00;24.60
16532;DHT22;66872;63.142;14.482;2023-03-03T01:30:07;13.00;24.60
16532;DHT22;66872;63.142;14.482;2023-03-03T01:32:34;13.00;24.70
16532;DHT22;66872;63.142;14.482;2023-03-03T01:34:59;13.00;24.70
16532;DHT22;66872;63.142;14.482;2023-03-03T01:37:25;13.00;24.70
16532;DHT22;66872;63.142;14.482;2023-03-03T01:39:54;13.00;24.70
16532;DHT22;66872;63.142;14.482;2023-03-03T01:42:20;13.00;24.70
16532;DHT22;66872;63.142;14.482;2023-03-03T01:44:46;13.00;24.70
16532;DHT22;66872;63.142;14.482;2023-03-03T01:49:52;13.00;24.70
16532;DHT22;66872;63.142;14.482;2023-03-03T01:52:34;12.90;24.70
16532;DHT22;66872;63.142;14.482;2023-03-03T01:55:07;12.90;24.70
16532;DHT22;66872;63.142;14.482;2023-03-03T01:57:40;12.90;24.80
16532;DHT22;66872;63.142;14.482;2023-03-03T02:00:07;12.90;24.70
16532;DHT22;66872;63.142;14.482;2023-03-03T02:02:35;13.00;24.80
16532;DHT22;66872;63.142;14.482;2023-03-03T02:05:01;13.00;24.80
16532;DHT22;66872;63.142;14.482;2023-03-03T02:07:28;12.90;24.70
16532;DHT22;66872;63.142;14.482;2023-03-03T02:12:48;12.90;24.80
16532;DHT22;66872;63.142;14.482;2023-03-03T02:17:46;12.90;24.80
16532;DHT22;66872;63.142;14.482;2023-03-03T02:22:52;12.90;24.80
16532;DHT22;66872;63.142;14.482;2023-03-03T02:25:44;12.90;24.80
16532;DHT22;66872;63.142;14.482;2023-03-03T02:28:13;13.00;24.80
16532;DHT22;66872;63.142;14.482;2023-03-03T02:30:39;13.00;24.80
16532;DHT22;66872;63.142;14.482;2023-03-03T02:33:06;13.00;24.90
16532;DHT22;66872;63.142;14.482;2023-03-03T02:35:37;12.90;24.80
16532;DHT22;66872;63.142;14.482;2023-03-03T02:38:19;13.00;24.80
16532;DHT22;66872;63.142;14.482;2023-03-03T02:41:12;13.00;24.80
16532;DHT22;66872;63.142;14.482;2023-03-03T02:44:01;12.90;24.80
16532;DHT22;66872;63.142;14.482;2023-03-03T02:46:34;12.90;24.90
16532;DHT22;66872;63.142;14.482;2023-03-03T02:49:02;12.90;24.90
16532;DHT22;66872;63.142;14.482;2023-03-03T02:51:28;12.90;24.90
16532;DHT22;66872;63.142;14.482;2023-03-03T02:53:54;12.90;24.90
16532;DHT22;66872;63.142;14.482;2023-03-03T02:56:19;13.00;24.90
16532;DHT22;66872;63.142;14.482;2023-03-03T02:58:45;13.00;25.00
16532;DHT22;66872;63.142;14.482;2023-03-03T03:01:11;12.90;24.90
16532;DHT22;66872;63.142;14.482;2023-03-03T03:03:37;12.90;25.00
16532;DHT22;66872;63.142;14.482;2023-03-03T03:06:03;13.00;25.00
16532;DHT22;66872;63.142;14.482;2023-03-03T03:08:28;13.00;25.00
16532;DHT22;66872;63.142;14.482;2023-03-03T03:10:54;12.90;24.90
16532;DHT22;66872;63.142;14.482;2023-03-03T03:13:22;13.00;25.00
16532;DHT22;66872;63.142;14.482;2023-03-03T03:15:47;12.90;25.00
16532;DHT22;66872;63.142;14.482;2023-03-03T03:18:14;12.90;25.00
16532;DHT22;66872;63.142;14.482;2023-03-03T03:20:40;13.00;25.10
16532;DHT22;66872;63.142;14.482;2023-03-03T03:23:07;13.00;25.10
16532;DHT22;66872;63.142;14.482;2023-03-03T03:25:33;12.90;25.00
16532;DHT22;66872;63.142;14.482;2023-03-03T03:27:59;12.90;25.10
16532;DHT22;66872;63.142;14.482;2023-03-03T03:30:24;13.00;25.10
16532;DHT22;66872;63.142;14.482;2023-03-03T03:32:50;13.00;25.10
16532;DHT22;66872;63.142;14.482;2023-03-03T03:35:16;12.90;25.10
16532;DHT22;66872;63.142;14.482;2023-03-03T03:37:43;12.90;25.10
16532;DHT22;66872;63.142;14.482;2023-03-03T03:40:09;12.90;25.10
16532;DHT22;66872;63.142;14.482;2023-03-03T03:42:35;12.90;25.10
16532;DHT22;66872;63.142;14.482;2023-03-03T03:45:03;12.90;25.10
16532;DHT22;66872;63.142;14.482;2023-03-03T03:47:29;12.90;25.10
16532;DHT22;66872;63.142;14.482;2023-03-03T03:49:55;12.90;25.10
16532;DHT22;66872;63.142;14.482;2023-03-03T03:52:20;12.90;25.10
16532;DHT22;66872;63.142;14.482;2023-03-03T03:54:46;12.90;25.10
16532;DHT22;66872;63.142;14.482;2023-03-03T03:57:12;12.90;25.20
16532;DHT22;66872;63.142;14.482;2023-03-03T03:59:38;12.90;25.20
16532;DHT22;66872;63.142;14.482;2023-03-03T04:02:04;12.90;25.20
16532;DHT22;66872;63.142;14.482;2023-03-03T04:04:30;12.90;25.20
16532;DHT22;66872;63.142;14.482;2023-03-03T04:06:56;12.90;25.20
16532;DHT22;66872;63.142;14.482;2023-03-03T04:09:21;12.90;25.20
16532;DHT22;66872;63.142;14.482;2023-03-03T04:11:47;12.90;25.20
16532;DHT22;66872;63.142;14.482;2023-03-03T04:14:13;12.90;25.30
16532;DHT22;66872;63.142;14.482;2023-03-03T04:16:38;12.90;25.20
16532;DHT22;66872;63.142;14.482;2023-03-03T04:19:04;12.90;25.30
16532;DHT22;66872;63.142;14.482;2023-03-03T04:21:30;12.90;25.30
16532;DHT22;66872;63.142;14.482;2023-03-03T04:23:56;12.90;25.30
16532;DHT22;66872;63.142;14.482;2023-03-03T04:26:21;12.90;25.30
16532;DHT22;66872;63.142;14.482;2023-03-03T04:28:47;12.90;25.30
16532;DHT22;66872;63.142;14.482;2023-03-03T04:31:13;12.90;25.30
16532;DHT22;66872;63.142;14.482;2023-03-03T04:33:39;12.90;25.20
16532;DHT22;66872;63.142;14.482;2023-03-03T04:36:04;12.90;25.20
16532;DHT22;66872;63.142;14.482;2023-03-03T04:38:30;12.90;25.20
16532;DHT22;66872;63.142;14.482;2023-03-03T04:40:56;12.90;25.30
16532;DHT22;66872;63.142;14.482;2023-03-03T04:43:22;12.90;25.30
16532;DHT22;66872;63.142;14.482;2023-03-03T04:45:48;12.90;25.30
16532;DHT22;66872;63.142;14.482;2023-03-03T04:48:13;12.90;25.30
16532;DHT22;66872;63.142;14.482;2023-03-03T04:50:40;12.90;25.30
16532;DHT22;66872;63.142;14.482;2023-03-03T04:53:06;12.90;25.80
16532;DHT22;66872;63.142;14.482;2023-03-03T04:55:34;12.90;25.30
16532;DHT22;66872;63.142;14.482;2023-03-03T04:58:00;12.90;25.30
16532;DHT22;66872;63.142;14.482;2023-03-03T05:00:25;12.90;25.30
16532;DHT22;66872;63.142;14.482;2023-03-03T05:02:51;12.90;25.30
16532;DHT22;66872;63.142;14.482;2023-03-03T05:05:17;12.90;25.30
16532;DHT22;66872;63.142;14.482;2023-03-03T05:07:43;12.90;25.30
16532;DHT22;66872;63.142;14.482;2023-03-03T05:10:09;12.90;25.30
16532;DHT22;66872;63.142;14.482;2023-03-03T05:12:35;12.90;25.30
16532;DHT22;66872;63.142;14.482;2023-03-03T05:15:00;13.00;25.30
16532;DHT22;66872;63.142;14.482;2023-03-03T05:17:26;12.90;25.20
16532;DHT22;66872;63.142;14.482;2023-03-03T05:19:52;13.00;25.30
16532;DHT22;66872;63.142;14.482;2023-03-03T05:22:18;13.00;25.30
16532;DHT22;66872;63.142;14.482;2023-03-03T05:24:44;13.00;25.30
16532;DHT22;66872;63.142;14.482;2023-03-03T05:27:13;13.00;25.30
16532;DHT22;66872;63.142;14.482;2023-03-03T05:29:39;13.00;25.30
16532;DHT22;66872;63.142;14.482;2023-03-03T05:32:05;13.00;25.20
16532;DHT22;66872;63.142;14.482;2023-03-03T05:34:31;13.00;25.20
16532;DHT22;66872;63.142;14.482;2023-03-03T05:36:56;13.00;25.30
16532;DHT22;66872;63.142;14.482;2023-03-03T05:39:22;13.00;25.30
16532;DHT22;66872;63.142;14.482;2023-03-03T05:41:48;13.00;25.20
16532;DHT22;66872;63.142;14.482;2023-03-03T05:44:14;13.00;25.20
16532;DHT22;66872;63.142;14.482;2023-03-03T05:46:40;13.00;25.20
16532;DHT22;66872;63.142;14.482;2023-03-03T05:49:07;13.00;25.20
16532;DHT22;66872;63.142;14.482;2023-03-03T05:51:33;13.00;25.20
16532;DHT22;66872;63.142;14.482;2023-03-03T05:53:58;13.00;25.20
16532;DHT22;66872;63.142;14.482;2023-03-03T05:56:24;13.00;25.10
16532;DHT22;66872;63.142;14.482;2023-03-03T05:58:50;13.00;25.20
16532;DHT22;66872;63.142;14.482;2023-03-03T06:01:16;13.00;25.20
16532;DHT22;66872;63.142;14.482;2023-03-03T06:03:41;13.00;25.20
16532;DHT22;66872;63.142;14.482;2023-03-03T06:06:07;13.00;25.20
16532;DHT22;66872;63.142;14.482;2023-03-03T06:08:33;13.00;25.20
16532;DHT22;66872;63.142;14.482;2023-03-03T06:10:59;13.00;25.20
16532;DHT22;66872;63.142;14.482;2023-03-03T06:13:25;13.00;25.20
16532;DHT22;66872;63.142;14.482;2023-03-03T06:15:51;13.00;25.20
16532;DHT22;66872;63.142;14.482;2023-03-03T06:18:17;13.00;25.20
16532;DHT22;66872;63.142;14.482;2023-03-03T06:20:43;13.10;25.20
16532;DHT22;66872;63.142;14.482;2023-03-03T06:23:09;13.00;25.20
16532;DHT22;66872;63.142;14.482;2023-03-03T06:25:34;13.00;25.10
16532;DHT22;66872;63.142;14.482;2023-03-03T06:28:01;13.10;25.20
16532;DHT22;66872;63.142;14.482;2023-03-03T06:30:27;13.10;25.20
16532;DHT22;66872;63.142;14.482;2023-03-03T06:32:55;13.10;25.20
16532;DHT22;66872;63.142;14.482;2023-03-03T06:35:20;13.10;25.20
16532;DHT22;66872;63.142;14.482;2023-03-03T06:37:46;13.10;25.20
16532;DHT22;66872;63.142;14.482;2023-03-03T06:40:15;13.10;25.40
16532;DHT22;66872;63.142;14.482;2023-03-03T06:42:40;13.10;25.20
16532;DHT22;66872;63.142;14.482;2023-03-03T06:45:06;13.10;25.20
16532;DHT22;66872;63.142;14.482;2023-03-03T06:47:32;13.10;25.20
16532;DHT22;66872;63.142;14.482;2023-03-03T06:49:58;13.10;25.20
16532;DHT22;66872;63.142;14.482;2023-03-03T06:52:25;13.10;25.10
16532;DHT22;66872;63.142;14.482;2023-03-03T06:54:57;13.10;25.10
16532;DHT22;66872;63.142;14.482;2023-03-03T06:57:31;13.20;25.10
16532;DHT22;66872;63.142;14.482;2023-03-03T07:00:05;13.20;25.10
16532;DHT22;66872;63.142;14.482;2023-03-03T07:02:36;13.20;25.10
16532;DHT22;66872;63.142;14.482;2023-03-03T07:05:10;13.20;25.10
16532;DHT22;66872;63.142;14.482;2023-03-03T07:07:38;13.30;25.10
16532;DHT22;66872;63.142;14.482;2023-03-03T07:10:28;13.30;25.00
16532;DHT22;66872;63.142;14.482;2023-03-03T07:13:04;13.30;25.00
16532;DHT22;66872;63.142;14.482;2023-03-03T07:15:35;13.30;24.90
16532;DHT22;66872;63.142;14.482;2023-03-03T07:18:00;13.30;24.90
16532;DHT22;66872;63.142;14.482;2023-03-03T07:20:34;13.40;24.90
16532;DHT22;66872;63.142;14.482;2023-03-03T07:23:01;13.40;24.90
16532;DHT22;66872;63.142;14.482;2023-03-03T07:25:36;13.40;24.80
16532;DHT22;66872;63.142;14.482;2023-03-03T07:28:26;13.40;24.80
16532;DHT22;66872;63.142;14.482;2023-03-03T07:30:54;13.50;24.80
16532;DHT22;66872;63.142;14.482;2023-03-03T07:33:33;13.50;24.80
16532;DHT22;66872;63.142;14.482;2023-03-03T07:36:01;13.50;24.70
16532;DHT22;66872;63.142;14.482;2023-03-03T07:38:37;13.50;24.70
16532;DHT22;66872;63.142;14.482;2023-03-03T07:41:13;13.50;24.70
16532;DHT22;66872;63.142;14.482;2023-03-03T07:43:44;13.50;24.70
16532;DHT22;66872;63.142;14.482;2023-03-03T07:46:49;13.50;24.70
16532;DHT22;66872;63.142;14.482;2023-03-03T07:51:44;13.50;24.70
16532;DHT22;66872;63.142;14.482;2023-03-03T07:57:06;13.50;24.60
16532;DHT22;66872;63.142;14.482;2023-03-03T07:59:37;13.60;24.70
16532;DHT22;66872;63.142;14.482;2023-03-03T08:04:48;13.60;24.60
16532;DHT22;66872;63.142;14.482;2023-03-03T08:07:22;13.60;24.60
16532;DHT22;66872;63.142;14.482;2023-03-03T08:12:39;13.70;24.60
16532;DHT22;66872;63.142;14.482;2023-03-03T08:15:25;13.70;24.50
16532;DHT22;66872;63.142;14.482;2023-03-03T08:17:54;13.70;24.50
16532;DHT22;66872;63.142;14.482;2023-03-03T08:23:07;13.80;24.50
16532;DHT22;66872;63.142;14.482;2023-03-03T08:25:33;13.90;24.60
16532;DHT22;66872;63.142;14.482;2023-03-03T08:27:59;14.00;24.50
16532;DHT22;66872;63.142;14.482;2023-03-03T08:30:25;14.10;24.30
16532;DHT22;66872;63.142;14.482;2023-03-03T08:32:50;14.20;24.10
16532;DHT22;66872;63.142;14.482;2023-03-03T08:35:16;14.30;24.00
16532;DHT22;66872;63.142;14.482;2023-03-03T08:37:41;14.30;23.90
16532;DHT22;66872;63.142;14.482;2023-03-03T08:40:08;14.30;23.80
16532;DHT22;66872;63.142;14.482;2023-03-03T08:42:34;14.40;23.80
16532;DHT22;66872;63.142;14.482;2023-03-03T08:44:59;14.40;23.80
16532;DHT22;66872;63.142;14.482;2023-03-03T08:47:25;14.50;23.80
16532;DHT22;66872;63.142;14.482;2023-03-03T08:49:51;14.50;23.70
16532;DHT22;66872;63.142;14.482;2023-03-03T08:52:18;14.50;23.60
16532;DHT22;66872;63.142;14.482;2023-03-03T08:54:44;14.60;23.60
16532;DHT22;66872;63.142;14.482;2023-03-03T08:57:10;14.60;23.50
16532;DHT22;66872;63.142;14.482;2023-03-03T08:59:36;14.60;23.60
16532;DHT22;66872;63.142;14.482;2023-03-03T09:02:04;14.60;23.50
16532;DHT22;66872;63.142;14.482;2023-03-03T09:04:30;14.60;23.50
16532;DHT22;66872;63.142;14.482;2023-03-03T09:06:56;14.60;24.00
16532;DHT22;66872;63.142;14.482;2023-03-03T09:09:22;14.60;23.50
16532;DHT22;66872;63.142;14.482;2023-03-03T09:11:48;14.60;23.60
16532;DHT22;66872;63.142;14.482;2023-03-03T09:14:16;14.70;23.60
16532;DHT22;66872;63.142;14.482;2023-03-03T09:16:53;14.70;23.60
16532;DHT22;66872;63.142;14.482;2023-03-03T09:19:26;14.70;23.50
16532;DHT22;66872;63.142;14.482;2023-03-03T09:21:53;14.80;23.50
16532;DHT22;66872;63.142;14.482;2023-03-03T09:24:28;14.80;23.40
16532;DHT22;66872;63.142;14.482;2023-03-03T09:26:55;14.80;23.40
16532;DHT22;66872;63.142;14.482;2023-03-03T09:29:34;14.90;23.40
16532;DHT22;66872;63.142;14.482;2023-03-03T09:32:34;14.90;23.30
16532;DHT22;66872;63.142;14.482;2023-03-03T09:37:50;14.90;23.30
16532;DHT22;66872;63.142;14.482;2023-03-03T09:40:48;14.90;23.30
16532;DHT22;66872;63.142;14.482;2023-03-03T09:51:53;14.90;23.40
16532;DHT22;66872;63.142;14.482;2023-03-03T10:00:24;14.90;23.60
16532;DHT22;66872;63.142;14.482;2023-03-03T10:05:57;14.90;23.50
16532;DHT22;66872;63.142;14.482;2023-03-03T10:14:00;14.90;23.50
16532;DHT22;66872;63.142;14.482;2023-03-03T10:19:31;15.00;23.50
16532;DHT22;66872;63.142;14.482;2023-03-03T10:22:17;15.10;23.50
16532;DHT22;66872;63.142;14.482;2023-03-03T10:33:24;15.10;23.40
16532;DHT22;66872;63.142;14.482;2023-03-03T10:36:23;15.10;23.40
16532;DHT22;66872;63.142;14.482;2023-03-03T10:39:00;15.10;23.40
16532;DHT22;66872;63.142;14.482;2023-03-03T10:47:11;15.20;23.40
16532;DHT22;66872;63.142;14.482;2023-03-03T10:50:13;15.10;23.30
16532;DHT22;66872;63.142;14.482;2023-03-03T10:53:21;15.20;23.40
16532;DHT22;66872;63.142;14.482;2023-03-03T11:01:42;15.20;23.40
16532;DHT22;66872;63.142;14.482;2023-03-03T11:15:02;15.10;23.30
16532;DHT22;66872;63.142;14.482;2023-03-03T11:33:36;15.20;23.30
16532;DHT22;66872;63.142;14.482;2023-03-03T11:36:24;15.20;23.30
16532;DHT22;66872;63.142;14.482;2023-03-03T11:39:10;15.20;23.30
16532;DHT22;66872;63.142;14.482;2023-03-03T11:44:48;15.20;23.30
16532;DHT22;66872;63.142;14.482;2023-03-03T11:53:06;15.20;23.30
16532;DHT22;66872;63.142;14.482;2023-03-03T11:55:40;15.20;23.30
16532;DHT22;66872;63.142;14.482;2023-03-03T11:58:19;15.20;23.30
16532;DHT22;66872;63.142;14.482;2023-03-03T12:03:44;15.20;23.60
16532;DHT22;66872;63.142;14.482;2023-03-03T12:14:46;15.10;23.30
16532;DHT22;66872;63.142;14.482;2023-03-03T12:20:58;15.10;23.30
16532;DHT22;66872;63.142;14.482;2023-03-03T12:24:11;15.10;23.30
16532;DHT22;66872;63.142;14.482;2023-03-03T12:29:40;15.10;23.20
16532;DHT22;66872;63.142;14.482;2023-03-03T12:38:18;15.20;23.20
16532;DHT22;66872;63.142;14.482;2023-03-03T12:46:59;15.20;23.10
16532;DHT22;66872;63.142;14.482;2023-03-03T13:06:16;15.10;23.00
16532;DHT22;66872;63.142;14.482;2023-03-03T13:11:26;15.10;23.10
16532;DHT22;66872;63.142;14.482;2023-03-03T13:19:26;15.20;23.00
16532;DHT22;66872;63.142;14.482;2023-03-03T13:22:00;15.20;22.90
16532;DHT22;66872;63.142;14.482;2023-03-03T13:24:32;15.20;23.00
16532;DHT22;66872;63.142;14.482;2023-03-03T13:27:07;15.20;22.90
16532;DHT22;66872;63.142;14.482;2023-03-03T13:29:40;15.10;22.90
16532;DHT22;66872;63.142;14.482;2023-03-03T13:32:23;15.10;22.90
16532;DHT22;66872;63.142;14.482;2023-03-03T13:35:39;15.10;23.00
16532;DHT22;66872;63.142;14.482;2023-03-03T13:38:05;15.10;23.00
16532;DHT22;66872;63.142;14.482;2023-03-03T13:40:41;15.10;22.90
16532;DHT22;66872;63.142;14.482;2023-03-03T13:43:25;15.10;23.00
16532;DHT22;66872;63.142;14.482;2023-03-03T13:46:22;15.10;23.00
16532;DHT22;66872;63.142;14.482;2023-03-03T13:57:13;15.00;22.90
16532;DHT22;66872;63.142;14.482;2023-03-03T14:00:11;15.00;22.90
16532;DHT22;66872;63.142;14.482;2023-03-03T14:03:06;15.00;22.90
16532;DHT22;66872;63.142;14.482;2023-03-03T14:05:37;15.00;22.90
16532;DHT22;66872;63.142;14.482;2023-03-03T14:11:36;15.00;22.90
16532;DHT22;66872;63.142;14.482;2023-03-03T14:20:09;14.90;22.90
16532;DHT22;66872;63.142;14.482;2023-03-03T14:22:58;14.80;22.90
16532;DHT22;66872;63.142;14.482;2023-03-03T14:25:26;14.80;22.90
16532;DHT22;66872;63.142;14.482;2023-03-03T14:28:19;14.80;23.40
16532;DHT22;66872;63.142;14.482;2023-03-03T14:30:45;14.80;22.90
16532;DHT22;66872;63.142;14.482;2023-03-03T14:38:20;14.70;22.80
16532;DHT22;66872;63.142;14.482;2023-03-03T14:40:48;14.70;22.80
16532;DHT22;66872;63.142;14.482;2023-03-03T14:43:26;14.60;22.80
16532;DHT22;66872;63.142;14.482;2023-03-03T14:49:03;14.60;22.80
16532;DHT22;66872;63.142;14.482;2023-03-03T14:51:48;14.60;22.90
16532;DHT22;66872;63.142;14.482;2023-03-03T14:54:27;14.60;22.90
16532;DHT22;66872;63.142;14.482;2023-03-03T14:57:02;14.50;22.90
16532;DHT22;66872;63.142;14.482;2023-03-03T14:59:32;14.50;22.90
16532;DHT22;66872;63.142;14.482;2023-03-03T15:04:33;14.50;22.90
16532;DHT22;66872;63.142;14.482;2023-03-03T15:07:26;14.50;22.90
16532;DHT22;66872;63.142;14.482;2023-03-03T15:09:54;14.50;22.90
16532;DHT22;66872;63.142;14.482;2023-03-03T15:15:09;14.40;22.90
16532;DHT22;66872;63.142;14.482;2023-03-03T15:20:36;14.40;22.90
16532;DHT22;66872;63.142;14.482;2023-03-03T15:26:09;14.30;22.90
16532;DHT22;66872;63.142;14.482;2023-03-03T15:37:02;14.20;23.00
16532;DHT22;66872;63.142;14.482;2023-03-03T15:39:51;14.10;23.00
16532;DHT22;66872;63.142;14.482;2023-03-03T15:42:41;14.10;23.00
16532;DHT22;66872;63.142;14.482;2023-03-03T15:45:26;14.10;23.00
16532;DHT22;66872;63.142;14.482;2023-03-03T15:56:49;13.90;23.10
16532;DHT22;66872;63.142;14.482;2023-03-03T16:07:46;13.80;23.30
16532;DHT22;66872;63.142;14.482;2023-03-03T16:15:49;13.70;23.30
16532;DHT22;66872;63.142;14.482;2023-03-03T16:23:51;13.60;23.30
16532;DHT22;66872;63.142;14.482;2023-03-03T16:26:59;13.60;23.30
16532;DHT22;66872;63.142;14.482;2023-03-03T16:34:57;13.50;23.40
16532;DHT22;66872;63.142;14.482;2023-03-03T16:37:35;13.40;23.30
16532;DHT22;66872;63.142;14.482;2023-03-03T16:42:39;13.40;23.40
16532;DHT22;66872;63.142;14.482;2023-03-03T16:45:25;13.40;23.40
16532;DHT22;66872;63.142;14.482;2023-03-03T16:48:18;13.40;23.40
16532;DHT22;66872;63.142;14.482;2023-03-03T16:50:59;13.30;23.40
16532;DHT22;66872;63.142;14.482;2023-03-03T16:56:23;13.30;23.50
16532;DHT22;66872;63.142;14.482;2023-03-03T17:01:57;13.30;23.40
16532;DHT22;66872;63.142;14.482;2023-03-03T17:04:53;13.20;23.30
16532;DHT22;66872;63.142;14.482;2023-03-03T17:15:39;13.10;23.40
16532;DHT22;66872;63.142;14.482;2023-03-03T17:20:59;13.10;23.40
16532;DHT22;66872;63.142;14.482;2023-03-03T17:40:03;13.00;23.30
16532;DHT22;66872;63.142;14.482;2023-03-03T17:42:59;13.00;23.30
16532;DHT22;66872;63.142;14.482;2023-03-03T17:45:34;13.00;23.40
16532;DHT22;66872;63.142;14.482;2023-03-03T17:50:55;12.90;23.30
16532;DHT22;66872;63.142;14.482;2023-03-03T17:53:40;12.90;23.40
16532;DHT22;66872;63.142;14.482;2023-03-03T17:56:10;12.90;23.40
16532;DHT22;66872;63.142;14.482;2023-03-03T18:04:38;12.90;23.50
16532;DHT22;66872;63.142;14.482;2023-03-03T18:12:56;12.90;23.40
16532;DHT22;66872;63.142;14.482;2023-03-03T18:25:57;12.80;23.30
16532;DHT22;66872;63.142;14.482;2023-03-03T18:28:50;12.80;23.30
16532;DHT22;66872;63.142;14.482;2023-03-03T18:31:27;12.70;23.30
16532;DHT22;66872;63.142;14.482;2023-03-03T18:39:00;12.70;23.20
16532;DHT22;66872;63.142;14.482;2023-03-03T18:41:29;12.70;23.30
16532;DHT22;66872;63.142;14.482;2023-03-03T18:44:42;12.70;23.30
16532;DHT22;66872;63.142;14.482;2023-03-03T18:46:48;12.70;23.20
16532;DHT22;66872;63.142;14.482;2023-03-03T18:49:15;12.70;23.20
16532;DHT22;66872;63.142;14.482;2023-03-03T19:18:23;12.60;23.10
16532;DHT22;66872;63.142;14.482;2023-03-03T19:21:36;12.70;23.20
16532;DHT22;66872;63.142;14.482;2023-03-03T19:35:29;12.60;23.10
16532;DHT22;66872;63.142;14.482;2023-03-03T19:41:16;12.50;23.10
16532;DHT22;66872;63.142;14.482;2023-03-03T19:46:57;12.50;23.10
16532;DHT22;66872;63.142;14.482;2023-03-03T19:52:48;12.50;23.10
16532;DHT22;66872;63.142;14.482;2023-03-03T19:55:35;12.50;23.00
16532;DHT22;66872;63.142;14.482;2023-03-03T20:01:02;12.40;23.00
16532;DHT22;66872;63.142;14.482;2023-03-03T20:27:47;12.40;22.90
16532;DHT22;66872;63.142;14.482;2023-03-03T20:49:53;12.30;22.70
16532;DHT22;66872;63.142;14.482;2023-03-03T20:52:44;12.30;22.70
16532;DHT22;66872;63.142;14.482;2023-03-03T20:55:18;12.30;22.70
16532;DHT22;66872;63.142;14.482;2023-03-03T21:01:00;12.30;22.70
16532;DHT22;66872;63.142;14.482;2023-03-03T21:03:35;12.20;22.70
16532;DHT22;66872;63.142;14.482;2023-03-03T21:06:10;12.20;22.70
16532;DHT22;66872;63.142;14.482;2023-03-03T21:08:42;12.20;22.70
16532;DHT22;66872;63.142;14.482;2023-03-03T21:11:09;12.20;22.70
16532;DHT22;66872;63.142;14.482;2023-03-03T21:13:59;12.20;22.60
16532;DHT22;66872;63.142;14.482;2023-03-03T21:21:29;12.20;22.60
16532;DHT22;66872;63.142;14.482;2023-03-03T21:23:55;12.20;23.10
16532;DHT22;66872;63.142;14.482;2023-03-03T21:26:55;12.10;22.50
16532;DHT22;66872;63.142;14.482;2023-03-03T21:29:33;12.10;22.50
16532;DHT22;66872;63.142;14.482;2023-03-03T21:32:00;12.20;22.50
16532;DHT22;66872;63.142;14.482;2023-03-03T21:34:46;12.10;22.50
16532;DHT22;66872;63.142;14.482;2023-03-03T21:40:21;12.10;22.50
16532;DHT22;66872;63.142;14.482;2023-03-03T21:42:51;12.10;22.50
16532;DHT22;66872;63.142;14.482;2023-03-03T21:45:17;12.10;22.50
16532;DHT22;66872;63.142;14.482;2023-03-03T21:47:45;12.10;22.50
16532;DHT22;66872;63.142;14.482;2023-03-03T21:50:11;12.10;22.40
16532;DHT22;66872;63.142;14.482;2023-03-03T21:52:37;12.10;22.40
16532;DHT22;66872;63.142;14.482;2023-03-03T21:55:04;12.10;22.40
16532;DHT22;66872;63.142;14.482;2023-03-03T21:57:29;12.10;22.30
16532;DHT22;66872;63.142;14.482;2023-03-03T21:59:55;12.10;22.30
16532;DHT22;66872;63.142;14.482;2023-03-03T22:02:21;12.00;22.20
16532;DHT22;66872;63.142;14.482;2023-03-03T22:04:47;12.00;22.20
16532;DHT22;66872;63.142;14.482;2023-03-03T22:07:12;12.00;22.20
16532;DHT22;66872;63.142;14.482;2023-03-03T22:09:38;12.00;22.20
16532;DHT22;66872;63.142;14.482;2023-03-03T22:12:06;12.00;22.20
16532;DHT22;66872;63.142;14.482;2023-03-03T22:14:32;12.00;22.10
16532;DHT22;66872;63.142;14.482;2023-03-03T22:16:58;12.00;22.10
16532;DHT22;66872;63.142;14.482;2023-03-03T22:19:24;12.00;22.00
16532;DHT22;66872;63.142;14.482;2023-03-03T22:21:50;12.00;22.00
16532;DHT22;66872;63.142;14.482;2023-03-03T22:24:16;12.00;22.00
16532;DHT22;66872;63.142;14.482;2023-03-03T22:26:42;12.00;22.00
16532;DHT22;66872;63.142;14.482;2023-03-03T22:29:08;12.00;22.00
16532;DHT22;66872;63.142;14.482;2023-03-03T22:31:34;12.00;22.00
16532;DHT22;66872;63.142;14.482;2023-03-03T22:34:00;12.00;21.90
16532;DHT22;66872;63.142;14.482;2023-03-03T22:36:26;11.90;21.90
16532;DHT22;66872;63.142;14.482;2023-03-03T22:38:51;11.90;21.90
16532;DHT22;66872;63.142;14.482;2023-03-03T22:41:17;11.90;22.30
16532;DHT22;66872;63.142;14.482;2023-03-03T22:43:43;12.00;21.90
16532;DHT22;66872;63.142;14.482;2023-03-03T22:46:09;11.90;21.70